createdAt,value
2023-04-18T00:01:01.925Z,11
2023-04-18T00:03:49.831Z,19
2023-04-18T00:06:39.458Z,25
2023-04-18T00:09:27.275Z,19
2023-04-18T00:12:15.033Z,19
2023-04-18T00:15:02.684Z,16
2023-04-18T00:17:50.306Z,17
2023-04-18T00:20:38.127Z,1
2023-04-18T00:23:25.855Z,23
2023-04-18T00:26:13.535Z,14
2023-04-18T00:29:01.213Z,6
2023-04-18T00:31:48.840Z,19
2023-04-18T00:34:36.460Z,20
2023-04-18T00:37:24.511Z,17
2023-04-18T00:40:12.135Z,5
2023-04-18T00:42:59.718Z,17
2023-04-18T00:45:47.462Z,9
2023-04-18T00:48:35.338Z,17
2023-04-18T00:51:23.174Z,21
2023-04-18T00:54:11.148Z,8
2023-04-18T00:56:58.839Z,28
2023-04-18T00:59:46.683Z,5
2023-04-18T01:02:34.480Z,18
2023-04-18T01:05:23.129Z,17
2023-04-18T01:08:10.874Z,16
2023-04-18T01:10:58.802Z,18
2023-04-18T01:13:46.365Z,23
2023-04-18T01:16:34.706Z,16
2023-04-18T01:19:22.302Z,21
2023-04-18T01:22:09.962Z,6
2023-04-18T01:24:57.571Z,10
2023-04-18T01:27:45.337Z,19
2023-04-18T01:30:32.957Z,18
2023-04-18T01:33:20.890Z,32
2023-04-18T01:36:08.570Z,14
2023-04-18T01:38:56.300Z,12
2023-04-18T01:41:44.015Z,17
2023-04-18T01:44:31.894Z,6
2023-04-18T01:47:19.505Z,3
2023-04-18T01:50:07.334Z,15
2023-04-18T01:52:54.982Z,4
2023-04-18T01:55:42.540Z,14
2023-04-18T01:58:32.093Z,21
2023-04-18T02:01:20.022Z,8
2023-04-18T02:04:08.076Z,8
2023-04-18T02:06:55.883Z,15
2023-04-18T02:09:43.767Z,16
2023-04-18T02:12:31.546Z,8
2023-04-18T02:15:19.354Z,26
2023-04-18T02:18:07.294Z,13
2023-04-18T02:20:55.156Z,19
2023-04-18T02:23:42.794Z,16
2023-04-18T02:26:30.801Z,18
2023-04-18T02:29:18.608Z,31
2023-04-18T02:32:07.386Z,14
2023-04-18T02:34:55.462Z,14
2023-04-18T02:37:43.180Z,11
2023-04-18T02:40:30.966Z,21
2023-04-18T02:43:18.734Z,14
2023-04-18T02:46:06.472Z,4
2023-04-18T02:48:54.235Z,15
2023-04-18T02:51:42.075Z,12
2023-04-18T02:54:29.855Z,17
2023-04-18T02:57:17.561Z,16
2023-04-18T03:00:05.138Z,18
2023-04-18T03:02:52.860Z,16
2023-04-18T03:05:40.827Z,14
2023-04-18T03:08:28.789Z,19
2023-04-18T03:11:16.475Z,10
2023-04-18T03:14:04.259Z,14
2023-04-18T03:16:54.669Z,20
2023-04-18T03:19:43.053Z,6
2023-04-18T03:22:30.686Z,19
2023-04-18T03:25:18.664Z,16
2023-04-18T03:28:06.451Z,3
2023-04-18T03:30:54.283Z,23
2023-04-18T03:33:42.219Z,14
2023-04-18T03:36:30.102Z,8
2023-04-18T03:39:17.848Z,15
2023-04-18T03:42:05.770Z,18
2023-04-18T03:44:53.465Z,19
2023-04-18T03:47:41.346Z,21
2023-04-18T03:50:29.237Z,29
2023-04-18T03:53:16.952Z,24
2023-04-18T03:56:04.789Z,35
2023-04-18T03:58:52.582Z,39
2023-04-18T04:01:40.333Z,44
2023-04-18T04:04:28.403Z,71
2023-04-18T04:07:16.435Z,95
2023-04-18T04:10:04.270Z,131
2023-04-18T04:12:52.138Z,173
2023-04-18T04:15:39.948Z,212
2023-04-18T04:18:27.792Z,280
2023-04-18T04:21:15.456Z,335
2023-04-18T04:24:03.204Z,400
2023-04-18T04:26:50.855Z,461
2023-04-18T04:29:38.832Z,516
2023-04-18T04:32:26.692Z,563
2023-04-18T04:35:14.883Z,610
2023-04-18T04:38:02.567Z,645
2023-04-18T04:40:50.773Z,670
2023-04-18T04:43:38.482Z,696
2023-04-18T04:46:26.442Z,716
2023-04-18T04:49:14.348Z,732
2023-04-18T04:52:04.269Z,743
2023-04-18T04:54:52.124Z,754
2023-04-18T04:57:39.858Z,764
2023-04-18T05:00:27.640Z,766
2023-04-18T05:03:15.716Z,765
2023-04-18T05:06:03.854Z,790
2023-04-18T05:08:51.518Z,780
2023-04-18T05:11:39.286Z,780
2023-04-18T05:14:27.154Z,792
2023-04-18T05:17:15.056Z,786
2023-04-18T05:20:03.133Z,802
2023-04-18T05:22:50.944Z,803
2023-04-18T05:25:38.659Z,811
2023-04-18T05:28:26.397Z,819
2023-04-18T05:31:14.125Z,812
2023-04-18T05:34:01.841Z,818
2023-04-18T05:36:49.695Z,852
2023-04-18T05:39:37.527Z,862
2023-04-18T05:42:25.421Z,883
2023-04-18T05:45:13.096Z,903
2023-04-18T05:48:00.897Z,917
2023-04-18T05:50:48.663Z,938
2023-04-18T05:53:36.522Z,932
2023-04-18T05:56:24.391Z,952
2023-04-18T05:59:12.269Z,967
2023-04-18T06:01:59.967Z,964
2023-04-18T06:04:48.273Z,965
2023-04-18T06:07:36.792Z,972
2023-04-18T06:10:24.556Z,958
2023-04-18T06:13:12.462Z,971
2023-04-18T06:16:00.341Z,953
2023-04-18T06:18:48.232Z,965
2023-04-18T06:21:36.017Z,960
2023-04-18T06:24:23.897Z,963
2023-04-18T06:27:20.668Z,970
2023-04-18T06:30:15.851Z,961
2023-04-18T06:33:03.969Z,971
2023-04-18T06:35:51.790Z,977
2023-04-18T06:38:39.511Z,969
2023-04-18T06:41:27.191Z,969
2023-04-18T06:44:14.941Z,970
2023-04-18T06:47:02.859Z,977
2023-04-18T06:49:50.775Z,982
2023-04-18T06:52:38.528Z,980
2023-04-18T06:55:26.254Z,988
2023-04-18T06:58:13.941Z,1015
2023-04-18T07:01:02.271Z,993
2023-04-18T07:03:50.504Z,986
2023-04-18T07:06:39.738Z,991
2023-04-18T07:09:27.530Z,994
2023-04-18T07:12:15.211Z,987
2023-04-18T07:15:02.938Z,990
2023-04-18T07:17:50.617Z,993
2023-04-18T07:20:56.938Z,993
2023-04-18T07:23:44.623Z,998
2023-04-18T07:26:33.731Z,991
2023-04-18T07:29:21.470Z,990
2023-04-18T07:32:09.068Z,992
2023-04-18T07:34:57.180Z,994
2023-04-18T07:37:45.147Z,959
2023-04-18T07:40:32.959Z,955
2023-04-18T07:43:21.024Z,962
2023-04-18T07:46:08.991Z,960
2023-04-18T07:48:56.918Z,958
2023-04-18T07:51:44.674Z,959
2023-04-18T07:54:32.524Z,965
2023-04-18T07:57:20.323Z,958
2023-04-18T08:00:08.013Z,955
2023-04-18T08:02:56.016Z,956
2023-04-18T08:05:44.288Z,960
2023-04-18T08:08:32.155Z,960
2023-04-18T08:11:20.107Z,945
2023-04-18T08:14:07.938Z,925
2023-04-18T08:16:55.547Z,916
2023-04-18T08:19:43.518Z,914
2023-04-18T08:22:31.170Z,904
2023-04-18T08:25:30.910Z,926
2023-04-18T08:28:18.935Z,956
2023-04-18T08:31:06.620Z,964
2023-04-18T08:33:54.521Z,965
2023-04-18T08:36:42.391Z,971
2023-04-18T08:39:30.024Z,977
2023-04-18T08:42:17.908Z,976
2023-04-18T08:45:05.798Z,958
2023-04-18T08:47:53.950Z,954
2023-04-18T08:50:41.646Z,957
2023-04-18T08:53:29.392Z,975
2023-04-18T08:56:17.121Z,965
2023-04-18T08:59:04.884Z,963
2023-04-18T09:01:52.918Z,968
2023-04-18T09:04:40.947Z,961
2023-04-18T09:07:28.736Z,948
2023-04-18T09:10:16.706Z,958
2023-04-18T09:13:06.435Z,962
2023-04-18T09:15:54.390Z,961
2023-04-18T09:18:42.611Z,950
2023-04-18T09:21:30.610Z,954
2023-04-18T09:24:18.387Z,958
2023-04-18T09:27:06.018Z,939
2023-04-18T09:29:54.668Z,932
2023-04-18T09:32:43.671Z,934
2023-04-18T09:35:31.494Z,931
2023-04-18T09:38:19.402Z,948
2023-04-18T09:41:07.086Z,947
2023-04-18T09:43:54.969Z,960
2023-04-18T09:46:44.574Z,951
2023-04-18T09:49:33.794Z,946
2023-04-18T09:52:21.702Z,949
2023-04-18T09:55:09.362Z,945
2023-04-18T09:57:57.012Z,950
2023-04-18T10:00:46.777Z,957
2023-04-18T10:03:35.028Z,955
2023-04-18T10:06:23.142Z,952
2023-04-18T10:09:11.180Z,961
2023-04-18T10:11:58.895Z,966
2023-04-18T10:14:46.625Z,960
2023-04-18T10:17:34.505Z,960
2023-04-18T10:20:26.114Z,963
2023-04-18T10:23:14.000Z,955
2023-04-18T10:26:02.052Z,968
2023-04-18T10:28:49.837Z,976
2023-04-18T10:31:37.574Z,973
2023-04-18T10:34:25.374Z,995
2023-04-18T10:37:13.034Z,994
2023-04-18T10:40:00.806Z,979
2023-04-18T10:42:48.810Z,980
2023-04-18T10:45:36.624Z,974
2023-04-18T10:48:24.348Z,970
2023-04-18T10:51:12.157Z,976
2023-04-18T10:53:59.993Z,980
2023-04-18T10:56:47.800Z,971
2023-04-18T10:59:35.812Z,968
2023-04-18T11:02:23.830Z,962
2023-04-18T11:05:12.249Z,972
2023-04-18T11:08:01.004Z,977
2023-04-18T11:10:48.988Z,981
2023-04-18T11:13:36.760Z,974
2023-04-18T11:16:24.880Z,981
2023-04-18T11:19:12.959Z,983
2023-04-18T11:22:00.750Z,974
2023-04-18T11:24:48.479Z,990
2023-04-18T11:27:36.262Z,987
2023-04-18T11:30:24.079Z,981
2023-04-18T11:33:12.009Z,986
2023-04-18T11:35:59.847Z,986
2023-04-18T11:38:47.804Z,985
2023-04-18T11:41:35.643Z,990
2023-04-18T11:44:23.457Z,991
2023-04-18T11:47:11.486Z,979
2023-04-18T11:49:59.392Z,988
2023-04-18T11:52:47.181Z,985
2023-04-18T11:55:35.002Z,974
2023-04-18T11:58:22.740Z,979
2023-04-18T12:01:10.467Z,976
2023-04-18T12:03:58.867Z,967
2023-04-18T12:06:47.600Z,983
2023-04-18T12:09:35.353Z,977
2023-04-18T12:12:23.235Z,968
2023-04-18T12:15:10.927Z,969
2023-04-18T12:17:58.981Z,981
2023-04-18T12:20:46.719Z,984
2023-04-18T12:23:34.785Z,986
2023-04-18T12:26:22.467Z,990
2023-04-18T12:29:10.203Z,985
2023-04-18T12:31:58.079Z,990
2023-04-18T12:34:45.962Z,989
2023-04-18T12:37:33.823Z,990
2023-04-18T12:40:21.698Z,989
2023-04-18T12:43:09.465Z,995
2023-04-18T12:45:57.248Z,989
2023-04-18T12:48:45.130Z,984
2023-04-18T12:51:32.814Z,990
2023-04-18T12:54:20.483Z,990
2023-04-18T12:57:08.433Z,1010
2023-04-18T12:59:56.265Z,989
2023-04-18T13:02:44.155Z,983
2023-04-18T13:05:34.254Z,990
2023-04-18T13:08:21.969Z,993
2023-04-18T13:11:09.627Z,979
2023-04-18T13:13:57.376Z,998
2023-04-18T13:16:45.162Z,987
2023-04-18T13:19:32.854Z,981
2023-04-18T13:22:20.691Z,979
2023-04-18T13:25:08.389Z,982
2023-04-18T13:27:55.973Z,983
2023-04-18T13:30:43.782Z,978
2023-04-18T13:33:31.669Z,988
2023-04-18T13:36:19.348Z,992
2023-04-18T13:39:08.451Z,991
2023-04-18T13:41:56.087Z,984
2023-04-18T13:44:43.935Z,987
2023-04-18T13:47:31.772Z,983
2023-04-18T13:50:19.641Z,988
2023-04-18T13:53:07.224Z,982
2023-04-18T13:55:55.050Z,989
2023-04-18T13:58:42.680Z,987
2023-04-18T14:01:30.604Z,989
2023-04-18T14:04:19.041Z,982
2023-04-18T14:07:07.160Z,986
2023-04-18T14:09:54.790Z,983
2023-04-18T14:12:42.525Z,985
2023-04-18T14:15:30.276Z,981
2023-04-18T14:18:18.293Z,985
2023-04-18T14:21:06.280Z,978
2023-04-18T14:23:54.013Z,975
2023-04-18T14:26:41.750Z,976
2023-04-18T14:29:29.385Z,978
2023-04-18T14:32:17.077Z,978
2023-04-18T14:35:04.866Z,973
2023-04-18T14:37:52.570Z,974
2023-04-18T14:40:40.273Z,975
2023-04-18T14:43:27.986Z,974
2023-04-18T14:46:15.861Z,975
2023-04-18T14:49:03.647Z,970
2023-04-18T14:51:51.515Z,977
2023-04-18T14:54:39.154Z,978
2023-04-18T14:57:28.337Z,982
2023-04-18T15:00:16.089Z,983
2023-04-18T15:03:04.035Z,990
2023-04-18T15:05:52.397Z,973
2023-04-18T15:08:40.252Z,996
2023-04-18T15:11:27.874Z,985
2023-04-18T15:14:15.799Z,998
2023-04-18T15:17:03.781Z,984
2023-04-18T15:19:51.561Z,980
2023-04-18T15:22:43.291Z,977
2023-04-18T15:25:31.161Z,972
2023-04-18T15:28:19.234Z,963
2023-04-18T15:31:06.897Z,962
2023-04-18T15:33:58.526Z,977
2023-04-18T15:36:46.255Z,966
2023-04-18T15:39:33.938Z,967
2023-04-18T15:42:21.600Z,976
2023-04-18T15:45:09.363Z,961
2023-04-18T15:47:57.212Z,968
2023-04-18T15:50:45.101Z,972
2023-04-18T15:53:32.856Z,966
2023-04-18T15:56:20.639Z,966
2023-04-18T15:59:08.471Z,973
2023-04-18T16:01:56.428Z,966
2023-04-18T16:04:44.809Z,971
2023-04-18T16:07:32.604Z,963
2023-04-18T16:10:20.370Z,968
2023-04-18T16:13:08.096Z,965
2023-04-18T16:15:57.931Z,959
2023-04-18T16:18:46.123Z,958
2023-04-18T16:21:33.872Z,962
2023-04-18T16:24:21.531Z,957
2023-04-18T16:27:09.262Z,967
2023-04-18T16:29:57.001Z,958
2023-04-18T16:32:44.822Z,954
2023-04-18T16:35:33.077Z,953
2023-04-18T16:38:20.717Z,954
2023-04-18T16:41:08.390Z,951
2023-04-18T16:43:56.078Z,943
2023-04-18T16:46:43.776Z,953
2023-04-18T16:49:31.558Z,946
2023-04-18T16:52:19.731Z,947
2023-04-18T16:55:07.379Z,946
2023-04-18T16:57:54.987Z,948
2023-04-18T17:00:42.669Z,939
2023-04-18T17:03:30.515Z,931
2023-04-18T17:06:18.672Z,928
2023-04-18T17:09:06.631Z,934
2023-04-18T17:11:54.311Z,934
2023-04-18T17:14:41.894Z,933
2023-04-18T17:17:29.727Z,922
2023-04-18T17:20:17.457Z,927
2023-04-18T17:23:05.222Z,924
2023-04-18T17:25:52.930Z,924
2023-04-18T17:28:40.717Z,923
2023-04-18T17:31:28.376Z,923
2023-04-18T17:34:16.181Z,918
2023-04-18T17:37:03.789Z,908
2023-04-18T17:39:51.652Z,905
2023-04-18T17:42:39.441Z,902
2023-04-18T17:45:27.143Z,895
2023-04-18T17:48:15.132Z,890
2023-04-18T17:51:02.781Z,887
2023-04-18T17:53:50.459Z,873
2023-04-18T17:56:38.151Z,867
2023-04-18T17:59:25.908Z,867
2023-04-18T18:02:13.788Z,852
2023-04-18T18:05:02.446Z,850
2023-04-18T18:07:50.288Z,842
2023-04-18T18:10:38.584Z,826
2023-04-18T18:13:26.390Z,813
2023-04-18T18:16:14.205Z,798
2023-04-18T18:19:02.288Z,777
2023-04-18T18:21:50.088Z,755
2023-04-18T18:24:37.855Z,733
2023-04-18T18:27:25.540Z,697
2023-04-18T18:30:13.336Z,662
2023-04-18T18:33:01.203Z,615
2023-04-18T18:35:48.813Z,571
2023-04-18T18:38:36.409Z,511
2023-04-18T18:41:24.021Z,451
2023-04-18T18:44:11.675Z,390
2023-04-18T18:46:59.452Z,317
2023-04-18T18:49:47.461Z,251
2023-04-18T18:52:35.434Z,199
2023-04-18T18:55:23.263Z,144
2023-04-18T18:58:11.090Z,110
2023-04-18T19:00:58.888Z,84
2023-04-18T19:03:46.843Z,62
2023-04-18T19:06:35.092Z,47
2023-04-18T19:09:22.649Z,35
2023-04-18T19:12:10.420Z,32
2023-04-18T19:14:58.050Z,13
2023-04-18T19:17:45.751Z,35
2023-04-18T19:20:33.599Z,20
2023-04-18T19:23:21.449Z,23
2023-04-18T19:26:09.192Z,8
2023-04-18T19:28:56.772Z,10
2023-04-18T19:31:44.773Z,24
2023-04-18T19:34:32.480Z,7
2023-04-18T19:37:20.301Z,6
2023-04-18T19:40:08.050Z,16
2023-04-18T19:42:55.810Z,19
2023-04-18T19:45:43.542Z,14
2023-04-18T19:48:31.546Z,19
2023-04-18T19:51:19.067Z,17
2023-04-18T19:54:06.893Z,5
2023-04-18T19:56:54.850Z,22
2023-04-18T19:59:42.577Z,25
2023-04-18T20:02:33.082Z,17
2023-04-18T20:05:31.293Z,16
2023-04-18T20:08:19.017Z,19
2023-04-18T20:11:06.864Z,17
2023-04-18T20:13:54.502Z,22
2023-04-18T20:16:42.307Z,16
2023-04-18T20:19:30.079Z,17
2023-04-18T20:22:17.692Z,11
2023-04-18T20:25:05.290Z,12
2023-04-18T20:27:53.297Z,10
2023-04-18T20:30:41.057Z,23
2023-04-18T20:33:28.970Z,18
2023-04-18T20:36:16.566Z,21
2023-04-18T20:39:04.273Z,20
2023-04-18T20:41:52.175Z,18
2023-04-18T20:44:39.987Z,18
2023-04-18T20:47:27.806Z,2
2023-04-18T20:50:15.933Z,17
2023-04-18T20:53:03.565Z,15
2023-04-18T20:55:51.497Z,22
2023-04-18T20:58:39.180Z,23
2023-04-18T21:01:27.092Z,11
2023-04-18T21:04:15.902Z,23
2023-04-18T21:07:04.369Z,27
2023-04-18T21:09:52.205Z,19
2023-04-18T21:12:39.992Z,7
2023-04-18T21:15:27.573Z,21
2023-04-18T21:18:16.155Z,17
2023-04-18T21:21:03.802Z,26
2023-04-18T21:23:51.583Z,24
2023-04-18T21:26:39.213Z,18
2023-04-18T21:29:26.768Z,5
2023-04-18T21:32:14.481Z,34
2023-04-18T21:35:02.200Z,21
2023-04-18T21:37:50.039Z,26
2023-04-18T21:40:37.681Z,23
2023-04-18T21:43:25.399Z,15
2023-04-18T21:46:13.239Z,15
2023-04-18T21:52:51.208Z,20
2023-04-18T21:55:39.041Z,21
2023-04-18T21:58:26.680Z,29
2023-04-18T22:01:14.458Z,11
2023-04-18T22:04:02.360Z,21
2023-04-18T22:06:50.485Z,13
2023-04-18T22:09:38.324Z,22
2023-04-18T22:12:26.143Z,25
2023-04-18T22:15:13.936Z,9
2023-04-18T22:18:01.846Z,28
2023-04-18T22:20:49.541Z,15
2023-04-18T22:23:37.333Z,22
2023-04-18T22:26:24.994Z,14
2023-04-18T22:29:12.872Z,14
2023-04-18T22:32:00.511Z,21
2023-04-18T22:34:48.466Z,18
2023-04-18T22:37:36.118Z,13
2023-04-18T22:40:23.988Z,19
2023-04-18T22:43:11.723Z,9
2023-04-18T22:45:59.818Z,17
2023-04-18T22:48:47.641Z,20
2023-04-18T22:51:35.445Z,17
2023-04-18T22:54:23.053Z,19
2023-04-18T22:57:10.944Z,14
2023-04-18T22:59:58.691Z,20
2023-04-18T23:02:46.765Z,20
2023-04-18T23:05:35.100Z,42
2023-04-18T23:08:22.832Z,10
2023-04-18T23:11:10.576Z,11
2023-04-18T23:13:58.253Z,20
2023-04-18T23:16:45.972Z,14
2023-04-18T23:19:33.987Z,27
2023-04-18T23:22:21.861Z,25
2023-04-18T23:25:09.548Z,19
2023-04-18T23:27:57.155Z,22
2023-04-18T23:30:45.061Z,18
2023-04-18T23:33:32.928Z,37
2023-04-18T23:36:20.735Z,14
2023-04-18T23:39:08.507Z,24
2023-04-18T23:41:56.303Z,14
2023-04-18T23:44:43.970Z,13
2023-04-18T23:47:31.783Z,21
2023-04-18T23:50:19.817Z,21
2023-04-18T23:53:07.677Z,20
2023-04-18T23:55:55.202Z,15
2023-04-18T23:58:43.045Z,23
